createdAt,value
2019-05-14T00:00:22.763Z,1.50
2019-05-14T00:02:52.162Z,1.60
2019-05-14T00:05:21.657Z,1.90
2019-05-14T00:07:52.159Z,1.70
2019-05-14T00:10:21.895Z,2.00
2019-05-14T00:12:53.034Z,1.57
2019-05-14T00:15:22.128Z,1.93
2019-05-14T00:17:52.390Z,1.90
2019-05-14T00:20:22.570Z,1.93
2019-05-14T00:22:52.741Z,2.10
2019-05-14T00:25:22.082Z,2.03
2019-05-14T00:27:51.885Z,1.70
2019-05-14T00:30:22.052Z,2.07
2019-05-14T00:32:52.095Z,2.20
2019-05-14T00:35:21.667Z,1.97
2019-05-14T00:37:52.069Z,1.70
2019-05-14T00:40:22.073Z,1.90
2019-05-14T00:42:53.288Z,1.97
2019-05-14T00:45:22.414Z,2.10
2019-05-14T00:47:52.509Z,2.20
2019-05-14T00:50:22.040Z,1.97
2019-05-14T00:52:51.757Z,2.00
2019-05-14T00:55:22.445Z,1.70
2019-05-14T00:57:52.254Z,1.83
2019-05-14T01:00:22.144Z,1.60
2019-05-14T01:02:51.894Z,1.97
2019-05-14T01:05:21.519Z,1.90
2019-05-14T01:07:51.409Z,3.43
2019-05-14T01:10:22.236Z,2.20
2019-05-14T01:12:52.061Z,1.90
2019-05-14T01:15:21.975Z,1.60
2019-05-14T01:17:51.855Z,1.70
2019-05-14T01:20:21.370Z,2.30
2019-05-14T01:22:53.775Z,1.60
2019-05-14T01:25:23.789Z,1.37
2019-05-14T01:27:57.300Z,1.53
2019-05-14T01:30:27.282Z,1.40
2019-05-14T01:32:56.255Z,1.90
2019-05-14T01:35:25.504Z,1.80
2019-05-14T01:37:54.560Z,1.90
2019-05-14T01:40:23.627Z,2.03
2019-05-14T01:42:52.572Z,1.87
2019-05-14T01:45:27.707Z,2.20
2019-05-14T01:47:52.490Z,1.97
2019-05-14T01:50:21.698Z,2.77
2019-05-14T01:52:52.105Z,1.97
2019-05-14T01:55:22.054Z,2.20
2019-05-14T01:57:51.942Z,2.07
2019-05-14T02:00:22.377Z,2.47
2019-05-14T02:02:52.428Z,1.77
2019-05-14T02:05:21.800Z,1.87
2019-05-14T02:07:52.569Z,2.20
2019-05-14T02:10:22.298Z,2.10
2019-05-14T02:12:52.232Z,2.37
2019-05-14T02:15:35.227Z,2.30
2019-05-14T02:17:52.458Z,4.87
2019-05-14T02:20:21.739Z,1.80
2019-05-14T02:22:53.674Z,2.00
2019-05-14T02:25:23.106Z,1.90
2019-05-14T02:27:52.126Z,2.53
2019-05-14T02:30:28.565Z,1.77
2019-05-14T02:32:52.348Z,2.07
2019-05-14T02:35:22.083Z,2.53
2019-05-14T02:37:51.129Z,1.90
2019-05-14T02:40:20.605Z,2.73
2019-05-14T02:42:50.321Z,2.50
2019-05-14T02:45:19.992Z,2.70
2019-05-14T02:47:50.501Z,3.00
2019-05-14T02:50:20.278Z,1.83
2019-05-14T02:52:50.522Z,2.20
2019-05-14T02:55:19.683Z,2.30
2019-05-14T02:57:50.240Z,2.10
2019-05-14T03:00:19.818Z,2.17
2019-05-14T03:02:49.558Z,2.00
2019-05-14T03:05:19.797Z,2.00
2019-05-14T03:07:50.333Z,2.53
2019-05-14T03:10:23.493Z,2.07
2019-05-14T03:12:53.405Z,2.97
2019-05-14T03:15:23.620Z,2.30
2019-05-14T03:17:54.997Z,2.77
2019-05-14T03:20:24.144Z,3.87
2019-05-14T03:23:03.173Z,2.70
2019-05-14T03:25:24.301Z,1.97
2019-05-14T03:27:53.498Z,2.13
2019-05-14T03:30:23.653Z,2.73
2019-05-14T03:32:53.656Z,3.03
2019-05-14T03:35:32.471Z,2.83
2019-05-14T03:37:53.935Z,2.73
2019-05-14T03:40:22.999Z,2.60
2019-05-14T03:42:52.228Z,2.80
2019-05-14T03:45:22.079Z,3.27
2019-05-14T03:47:52.109Z,3.93
2019-05-14T03:50:21.091Z,3.50
2019-05-14T03:52:50.318Z,2.73
2019-05-14T03:55:20.143Z,3.20
2019-05-14T03:57:50.457Z,2.80
2019-05-14T04:00:23.399Z,3.97
2019-05-14T04:02:52.616Z,3.93
2019-05-14T04:05:22.888Z,2.57
2019-05-14T04:07:52.791Z,3.40
2019-05-14T04:10:21.804Z,3.33
2019-05-14T04:12:51.913Z,3.03
2019-05-14T04:15:22.582Z,2.83
2019-05-14T04:17:51.693Z,3.43
2019-05-14T04:20:21.141Z,3.70
2019-05-14T04:22:51.330Z,2.77
2019-05-14T04:25:20.358Z,2.90
2019-05-14T04:27:50.846Z,3.00
2019-05-14T04:30:23.924Z,3.27
2019-05-14T04:32:51.811Z,3.30
2019-05-14T04:35:21.099Z,3.97
2019-05-14T04:37:50.361Z,3.67
2019-05-14T04:40:19.281Z,2.73
2019-05-14T04:42:50.373Z,3.10
2019-05-14T04:45:19.862Z,3.20
2019-05-14T04:47:50.256Z,4.80
2019-05-14T04:50:20.336Z,3.20
2019-05-14T04:52:49.801Z,3.77
2019-05-14T04:55:20.385Z,3.30
2019-05-14T04:57:50.288Z,3.30
2019-05-14T05:00:20.025Z,3.07
2019-05-14T05:02:49.979Z,3.30
2019-05-14T05:05:19.804Z,3.40
2019-05-14T05:07:49.496Z,2.33
2019-05-14T05:10:19.414Z,3.10
2019-05-14T05:12:49.447Z,3.50
2019-05-14T05:15:21.968Z,2.77
2019-05-14T05:17:53.040Z,3.20
2019-05-14T05:20:22.014Z,3.73
2019-05-14T05:22:53.664Z,2.67
2019-05-14T05:25:22.826Z,2.40
2019-05-14T05:27:51.829Z,3.30
2019-05-14T05:30:21.110Z,3.80
2019-05-14T05:32:50.872Z,3.33
2019-05-14T05:35:20.133Z,3.67
2019-05-14T05:37:49.330Z,2.67
2019-05-14T05:40:19.682Z,3.77
2019-05-14T05:42:50.042Z,3.67
2019-05-14T05:45:19.651Z,3.40
2019-05-14T05:47:57.453Z,3.17
2019-05-14T05:50:19.691Z,3.70
2019-05-14T05:52:49.813Z,3.00
2019-05-14T05:55:19.409Z,3.20
2019-05-14T05:57:49.195Z,2.80
2019-05-14T06:00:44.655Z,3.00
2019-05-14T06:03:13.861Z,3.63
2019-05-14T06:05:43.106Z,3.90
2019-05-14T06:08:15.138Z,3.20
2019-05-14T06:10:44.230Z,2.70
2019-05-14T06:13:14.163Z,3.37
2019-05-14T06:15:47.807Z,4.07
2019-05-14T06:18:18.490Z,3.13
2019-05-14T06:20:44.824Z,3.23
2019-05-14T06:23:13.900Z,3.03
2019-05-14T06:25:42.786Z,3.33
2019-05-14T06:28:11.924Z,3.10
2019-05-14T06:30:41.619Z,3.70
2019-05-14T06:33:10.585Z,3.80
2019-05-14T06:35:40.045Z,3.20
2019-05-14T06:38:09.088Z,3.20
2019-05-14T06:40:39.548Z,3.80
2019-05-14T06:43:09.655Z,3.43
2019-05-14T06:45:39.138Z,3.87
2019-05-14T06:48:27.096Z,4.00
2019-05-14T06:50:46.485Z,3.83
2019-05-14T06:53:15.794Z,3.40
2019-05-14T06:55:45.068Z,4.03
2019-05-14T06:58:15.283Z,3.87
2019-05-14T07:00:44.517Z,3.93
2019-05-14T07:03:14.199Z,4.00
2019-05-14T07:05:44.009Z,5.00
2019-05-14T07:08:18.824Z,6.90
2019-05-14T07:10:49.161Z,4.75
2019-05-14T07:13:18.933Z,4.50
2019-05-14T07:15:49.216Z,5.50
2019-05-14T07:18:19.039Z,5.03
2019-05-14T07:20:48.871Z,5.03
2019-05-14T07:23:19.378Z,4.80
2019-05-14T07:25:49.664Z,5.20
2019-05-14T07:28:19.271Z,4.80
2019-05-14T07:30:48.722Z,4.80
2019-05-14T07:33:18.375Z,6.10
2019-05-14T07:35:48.874Z,4.73
2019-05-14T07:38:19.522Z,4.93
2019-05-14T07:40:49.574Z,5.67
2019-05-14T07:43:18.947Z,6.70
2019-05-14T07:45:49.222Z,4.73
2019-05-14T07:48:19.602Z,6.17
2019-05-14T07:50:51.940Z,4.73
2019-05-14T07:53:19.545Z,7.13
2019-05-14T07:55:49.344Z,6.90
2019-05-14T07:58:19.609Z,5.30
2019-05-14T08:00:50.083Z,6.93
2019-05-14T08:03:22.082Z,5.80
2019-05-14T08:05:51.090Z,5.67
2019-05-14T08:08:20.309Z,6.97
2019-05-14T08:10:49.684Z,5.30
2019-05-14T08:13:19.189Z,5.00
2019-05-14T08:15:49.118Z,5.30
2019-05-14T08:18:18.971Z,5.37
2019-05-14T08:20:49.512Z,6.47
2019-05-14T08:23:19.896Z,5.53
2019-05-14T08:25:48.995Z,4.70
2019-05-14T08:28:19.489Z,6.43
2019-05-14T08:30:49.245Z,5.67
2019-05-14T08:33:18.552Z,4.70
2019-05-14T08:35:48.838Z,6.40
2019-05-14T08:38:18.525Z,5.53
2019-05-14T08:40:48.842Z,4.73
2019-05-14T08:43:18.866Z,5.23
2019-05-14T08:45:49.858Z,5.70
2019-05-14T08:48:19.196Z,5.07
2019-05-14T08:50:48.481Z,4.80
2019-05-14T08:53:18.662Z,5.73
2019-05-14T08:55:48.790Z,5.37
2019-05-14T08:58:20.186Z,5.43
2019-05-14T09:00:49.202Z,6.70
2019-05-14T09:03:19.269Z,4.47
2019-05-14T09:05:49.159Z,5.00
2019-05-14T09:08:19.346Z,5.63
2019-05-14T09:10:49.938Z,4.90
2019-05-14T09:13:19.840Z,6.40
2019-05-14T09:15:49.146Z,5.10
2019-05-14T09:18:19.354Z,4.53
2019-05-14T09:20:50.474Z,4.93
2019-05-14T09:23:19.598Z,5.00
2019-05-14T09:25:53.214Z,5.93
2019-05-14T09:28:20.917Z,6.07
2019-05-14T09:30:50.097Z,5.07
2019-05-14T09:33:23.969Z,5.23
2019-05-14T09:36:08.084Z,4.67
2019-05-14T09:38:22.505Z,5.43
2019-05-14T09:41:06.922Z,6.30
2019-05-14T09:43:23.323Z,5.67
2019-05-14T09:45:52.759Z,5.80
2019-05-14T09:48:21.839Z,4.40
2019-05-14T09:50:51.508Z,6.87
2019-05-14T09:53:21.061Z,5.87
2019-05-14T09:55:50.141Z,5.60
2019-05-14T09:58:20.189Z,5.80
2019-05-14T10:00:50.658Z,6.70
2019-05-14T10:03:22.594Z,5.23
2019-05-14T10:05:51.786Z,4.93
2019-05-14T10:08:20.948Z,5.80
2019-05-14T10:10:50.593Z,5.40
2019-05-14T10:13:19.827Z,5.53
2019-05-14T10:15:48.724Z,5.67
2019-05-14T10:18:19.030Z,5.97
2019-05-14T10:20:49.391Z,6.33
2019-05-14T10:23:19.064Z,5.97
2019-05-14T10:25:48.344Z,6.53
2019-05-14T10:28:19.266Z,6.10
2019-05-14T10:30:49.343Z,6.33
2019-05-14T10:33:18.393Z,5.90
2019-05-14T10:35:48.465Z,5.77
2019-05-14T10:38:18.993Z,5.70
2019-05-14T10:40:48.477Z,5.70
2019-05-14T10:43:19.469Z,7.10
2019-05-14T10:45:49.394Z,6.33
2019-05-14T10:48:18.760Z,7.90
2019-05-14T10:50:59.051Z,7.17
2019-05-14T10:53:20.344Z,7.87
2019-05-14T10:55:49.998Z,7.73
2019-05-14T10:58:19.775Z,6.90
2019-05-14T11:00:49.578Z,7.47
2019-05-14T11:03:19.225Z,6.13
2019-05-14T11:05:48.647Z,8.10
2019-05-14T11:08:18.931Z,8.17
2019-05-14T11:10:49.878Z,6.77
2019-05-14T11:13:19.067Z,7.10
2019-05-14T11:15:48.812Z,6.20
2019-05-14T11:18:19.584Z,6.47
2019-05-14T11:20:51.596Z,6.28
2019-05-14T11:23:19.104Z,7.22
2019-05-14T11:25:48.768Z,6.78
2019-05-14T11:28:19.074Z,6.75
2019-05-14T11:30:49.397Z,7.15
2019-05-14T11:33:19.405Z,7.55
2019-05-14T11:35:48.788Z,6.28
2019-05-14T11:38:32.187Z,5.80
2019-05-14T11:40:49.492Z,6.03
2019-05-14T11:43:20.031Z,6.93
2019-05-14T11:45:49.166Z,6.67
2019-05-14T11:48:19.325Z,6.83
2019-05-14T11:50:49.305Z,4.60
2019-05-14T11:53:20.303Z,5.23
2019-05-14T11:55:50.575Z,6.30
2019-05-14T11:58:21.097Z,6.00
2019-05-14T12:00:50.158Z,5.70
2019-05-14T12:03:19.977Z,4.93
2019-05-14T12:05:50.118Z,5.27
2019-05-14T12:08:19.144Z,5.60
2019-05-14T12:10:47.923Z,5.03
2019-05-14T12:13:19.258Z,4.63
2019-05-14T12:15:48.605Z,5.00
2019-05-14T12:18:18.626Z,4.93
2019-05-14T12:20:49.835Z,5.70
2019-05-14T12:23:19.244Z,7.90
2019-05-14T12:25:49.312Z,4.37
2019-05-14T12:28:19.079Z,5.53
2019-05-14T12:30:49.084Z,4.90
2019-05-14T12:33:19.641Z,4.73
2019-05-14T12:35:49.682Z,5.33
2019-05-14T12:38:18.989Z,5.47
2019-05-14T12:40:47.802Z,5.28
2019-05-14T12:43:18.809Z,5.62
2019-05-14T12:45:48.112Z,4.40
2019-05-14T12:48:18.766Z,5.03
2019-05-14T12:50:49.023Z,4.95
2019-05-14T12:53:19.951Z,4.17
2019-05-14T12:55:48.877Z,4.83
2019-05-14T12:58:20.171Z,4.78
2019-05-14T13:00:48.822Z,5.30
2019-05-14T13:03:19.052Z,5.97
2019-05-14T13:05:49.079Z,6.05
2019-05-14T13:08:18.528Z,6.10
2019-05-14T13:10:49.202Z,4.87
2019-05-14T13:13:19.756Z,5.10
2019-05-14T13:15:48.947Z,7.10
2019-05-14T13:18:19.291Z,5.15
2019-05-14T13:20:48.317Z,6.80
2019-05-14T13:23:18.396Z,5.67
2019-05-14T13:25:48.325Z,5.77
2019-05-14T13:28:19.413Z,5.33
2019-05-14T13:30:48.945Z,4.70
2019-05-14T13:33:19.402Z,5.20
2019-05-14T13:35:48.869Z,5.50
2019-05-14T13:38:17.679Z,5.28
2019-05-14T13:40:49.151Z,4.33
2019-05-14T13:43:19.096Z,4.80
2019-05-14T13:45:49.380Z,4.70
2019-05-14T13:48:19.019Z,4.70
2019-05-14T13:50:49.026Z,5.83
2019-05-14T13:53:19.053Z,4.90
2019-05-14T13:55:56.793Z,4.67
2019-05-14T13:58:20.792Z,5.95
2019-05-14T14:00:51.927Z,4.58
2019-05-14T14:03:20.334Z,5.20
2019-05-14T14:05:50.081Z,5.28
2019-05-14T14:08:19.479Z,4.90
2019-05-14T14:10:53.323Z,5.70
2019-05-14T14:13:19.840Z,5.15
2019-05-14T14:15:49.239Z,6.08
2019-05-14T14:18:20.949Z,6.90
2019-05-14T14:20:49.074Z,6.72
2019-05-14T14:23:26.209Z,8.78
2019-05-14T14:25:54.869Z,8.30
2019-05-14T14:28:20.233Z,10.13
2019-05-14T14:30:49.378Z,8.45
2019-05-14T14:33:18.976Z,8.10
2019-05-14T14:35:48.709Z,9.33
2019-05-14T14:38:20.156Z,7.77
2019-05-14T14:40:49.473Z,8.40
2019-05-14T14:43:19.073Z,9.83
2019-05-14T14:45:51.186Z,7.05
2019-05-14T14:48:20.436Z,6.22
2019-05-14T14:50:50.059Z,6.80
2019-05-14T14:53:25.932Z,6.20
2019-05-14T14:55:50.684Z,6.03
2019-05-14T14:58:20.365Z,5.77
2019-05-14T15:00:49.709Z,4.77
2019-05-14T15:03:21.204Z,5.27
2019-05-14T15:05:50.066Z,4.97
2019-05-14T15:08:20.336Z,5.65
2019-05-14T15:10:49.829Z,6.10
2019-05-14T15:13:19.722Z,5.83
2019-05-14T15:15:49.531Z,5.53
2019-05-14T15:18:18.879Z,5.72
2019-05-14T15:20:48.894Z,4.77
2019-05-14T15:23:19.452Z,4.85
2019-05-14T15:25:49.520Z,5.47
2019-05-14T15:28:18.914Z,5.42
2019-05-14T15:30:49.835Z,5.37
2019-05-14T15:33:19.294Z,4.70
2019-05-14T15:35:49.269Z,4.87
2019-05-14T15:38:18.741Z,5.30
2019-05-14T15:41:13.610Z,5.27
2019-05-14T15:43:41.479Z,5.93
2019-05-14T15:46:10.702Z,5.80
2019-05-14T15:48:39.776Z,4.83
2019-05-14T15:51:11.392Z,5.23
2019-05-14T15:53:40.209Z,5.10
2019-05-14T15:56:09.390Z,5.93
2019-05-14T15:58:39.119Z,5.07
2019-05-14T16:01:11.537Z,5.93
2019-05-14T16:03:41.675Z,5.67
2019-05-14T16:06:11.280Z,5.90
2019-05-14T16:08:40.547Z,4.93
2019-05-14T16:11:11.479Z,5.43
2019-05-14T16:13:40.560Z,4.57
2019-05-14T16:16:10.715Z,4.57
2019-05-14T16:18:41.552Z,4.93
2019-05-14T16:21:13.908Z,3.97
2019-05-14T16:23:42.948Z,5.20
2019-05-14T16:26:13.136Z,5.17
2019-05-14T16:28:42.283Z,5.43
2019-05-14T16:31:11.397Z,5.73
2019-05-14T16:33:40.948Z,5.63
2019-05-14T16:36:09.885Z,5.10
2019-05-14T16:38:39.654Z,4.73
2019-05-14T16:41:09.004Z,4.70
2019-05-14T16:43:39.921Z,4.80
2019-05-14T16:46:09.778Z,4.63
2019-05-14T16:48:39.808Z,4.33
2019-05-14T16:51:09.275Z,4.70
2019-05-14T16:53:39.529Z,4.07
2019-05-14T16:56:08.864Z,5.50
2019-05-14T16:58:38.625Z,5.07
2019-05-14T17:01:09.619Z,6.00
2019-05-14T17:03:40.010Z,5.07
2019-05-14T17:06:11.890Z,4.43
2019-05-14T17:08:41.296Z,5.40
2019-05-14T17:11:11.197Z,6.00
2019-05-14T17:13:41.209Z,5.93
2019-05-14T17:16:10.543Z,4.77
2019-05-14T17:18:42.132Z,4.60
2019-05-14T17:21:11.190Z,4.27
2019-05-14T17:23:40.977Z,6.00
2019-05-14T17:26:10.362Z,4.40
2019-05-14T17:28:40.845Z,5.10
2019-05-14T17:31:11.041Z,4.40
2019-05-14T17:33:40.202Z,4.80
2019-05-14T17:36:09.935Z,4.53
2019-05-14T17:38:39.498Z,4.97
2019-05-14T17:41:09.624Z,5.20
2019-05-14T17:43:39.587Z,5.47
2019-05-14T17:46:09.846Z,5.00
2019-05-14T17:48:42.240Z,5.27
2019-05-14T17:51:11.217Z,6.40
2019-05-14T17:53:42.319Z,4.80
2019-05-14T17:56:11.117Z,5.13
2019-05-14T17:58:41.437Z,5.73
2019-05-14T18:01:10.429Z,5.40
2019-05-14T18:03:40.165Z,5.33
2019-05-14T18:06:09.954Z,5.00
2019-05-14T18:08:39.084Z,4.93
2019-05-14T18:11:09.184Z,5.23
2019-05-14T18:13:39.096Z,6.03
2019-05-14T18:16:09.143Z,5.50
2019-05-14T18:18:38.239Z,6.17
2019-05-14T18:21:09.374Z,5.53
2019-05-14T18:23:41.976Z,6.47
2019-05-14T18:26:09.951Z,6.10
2019-05-14T18:28:39.531Z,5.80
2019-05-14T18:31:10.064Z,6.13
2019-05-14T18:33:40.394Z,4.83
2019-05-14T18:36:09.419Z,6.17
2019-05-14T18:38:38.954Z,5.87
2019-05-14T18:41:08.707Z,5.20
2019-05-14T18:43:37.960Z,5.47
2019-05-14T18:46:08.629Z,7.53
2019-05-14T18:48:37.892Z,5.90
2019-05-14T18:51:08.962Z,6.80
2019-05-14T18:53:38.577Z,5.87
2019-05-14T18:56:19.669Z,6.17
2019-05-14T18:58:39.037Z,6.53
2019-05-14T19:01:08.393Z,6.03
2019-05-14T19:03:39.677Z,6.60
2019-05-14T19:06:08.855Z,5.50
2019-05-14T19:08:39.432Z,5.37
2019-05-14T19:11:08.702Z,6.13
2019-05-14T19:13:39.010Z,5.60
2019-05-14T19:16:08.557Z,6.33
2019-05-14T19:18:38.575Z,5.93
2019-05-14T19:21:08.784Z,5.77
2019-05-14T19:23:38.557Z,5.30
2019-05-14T19:26:09.544Z,5.87
2019-05-14T19:28:39.766Z,4.80
2019-05-14T19:31:09.254Z,4.77
2019-05-14T19:33:38.632Z,5.40
2019-05-14T19:36:08.866Z,5.90
2019-05-14T19:38:38.895Z,5.43
2019-05-14T19:41:10.047Z,5.13
2019-05-14T19:43:38.940Z,5.63
2019-05-14T19:46:08.774Z,5.03
2019-05-14T19:48:37.997Z,4.93
2019-05-14T19:51:08.272Z,5.87
2019-05-14T19:53:39.239Z,4.67
2019-05-14T19:56:08.581Z,4.63
2019-05-14T19:58:38.507Z,5.50
2019-05-14T20:01:09.172Z,4.73
2019-05-14T20:03:39.342Z,4.90
2019-05-14T20:06:09.179Z,5.03
2019-05-14T20:08:38.734Z,5.17
2019-05-14T20:11:07.689Z,7.40
2019-05-14T20:13:39.050Z,6.73
2019-05-14T20:16:08.653Z,5.73
2019-05-14T20:18:40.423Z,6.13
2019-05-14T20:21:10.662Z,5.63
2019-05-14T20:23:39.737Z,6.37
2019-05-14T20:26:08.847Z,5.30
2019-05-14T20:28:39.107Z,7.33
2019-05-14T20:31:10.004Z,6.23
2019-05-14T20:33:38.853Z,5.87
2019-05-14T20:36:08.406Z,6.47
2019-05-14T20:38:39.065Z,7.03
2019-05-14T20:41:18.154Z,6.37
2019-05-14T20:43:47.999Z,7.10
2019-05-14T20:46:19.152Z,6.30
2019-05-14T20:48:47.995Z,7.20
2019-05-14T20:51:18.547Z,6.77
2019-05-14T20:53:48.713Z,7.20
2019-05-14T20:56:19.001Z,6.27
2019-05-14T20:58:48.329Z,6.73
2019-05-14T21:01:18.426Z,5.97
2019-05-14T21:03:48.510Z,7.73
2019-05-14T21:06:18.827Z,6.93
2019-05-14T21:08:49.026Z,7.57
2019-05-14T21:11:19.045Z,6.93
2019-05-14T21:13:50.394Z,6.63
2019-05-14T21:16:20.133Z,7.10
2019-05-14T21:18:49.195Z,7.00
2019-05-14T21:21:18.657Z,6.37
2019-05-14T21:23:48.996Z,7.20
2019-05-14T21:26:19.442Z,7.13
2019-05-14T21:28:48.861Z,7.67
2019-05-14T21:31:19.034Z,7.50
2019-05-14T21:33:48.955Z,7.63
2019-05-14T21:36:19.297Z,5.73
2019-05-14T21:38:49.121Z,7.00
2019-05-14T21:41:20.377Z,8.67
2019-05-14T21:43:49.375Z,7.37
2019-05-14T21:46:19.414Z,7.47
2019-05-14T21:48:48.790Z,9.37
2019-05-14T21:51:18.137Z,8.07
2019-05-14T21:53:48.332Z,7.40
2019-05-14T21:56:21.251Z,7.27
2019-05-14T21:58:48.254Z,7.07
2019-05-14T22:01:18.737Z,7.13
2019-05-14T22:03:49.133Z,7.20
2019-05-14T22:06:48.837Z,7.70
2019-05-14T22:09:28.480Z,7.33
2019-05-14T22:11:58.349Z,7.53
2019-05-14T22:14:28.324Z,8.03
2019-05-14T22:16:58.394Z,7.27
2019-05-14T22:19:28.637Z,8.67
2019-05-14T22:21:58.678Z,11.50
2019-05-14T22:24:28.725Z,9.03
2019-05-14T22:26:58.669Z,7.40
2019-05-14T22:29:28.605Z,7.93
2019-05-14T22:31:58.698Z,8.57
2019-05-14T22:34:29.450Z,8.80
2019-05-14T22:36:58.460Z,8.73
2019-05-14T22:39:29.154Z,8.30
2019-05-14T22:42:00.217Z,8.07
2019-05-14T22:44:30.602Z,7.30
2019-05-14T22:47:00.929Z,8.20
2019-05-14T22:49:29.891Z,7.30
2019-05-14T22:51:59.159Z,6.53
2019-05-14T22:54:31.440Z,7.37
2019-05-14T22:57:00.260Z,7.13
2019-05-14T22:59:30.958Z,8.03
2019-05-14T23:02:00.107Z,7.20
2019-05-14T23:04:30.249Z,7.23
2019-05-14T23:06:59.295Z,7.47
2019-05-14T23:09:28.666Z,6.83
2019-05-14T23:11:58.917Z,7.43
2019-05-14T23:14:28.292Z,6.97
2019-05-14T23:16:58.809Z,7.40
2019-05-14T23:19:29.318Z,7.67
2019-05-14T23:21:58.225Z,8.03
2019-05-14T23:24:28.635Z,8.13
2019-05-14T23:26:58.453Z,8.33
2019-05-14T23:29:28.781Z,7.47
2019-05-14T23:31:58.790Z,7.43
2019-05-14T23:34:28.546Z,7.77
2019-05-14T23:36:58.549Z,8.03
2019-05-14T23:39:28.682Z,8.10
2019-05-14T23:41:59.815Z,8.80
2019-05-14T23:44:29.019Z,6.93
2019-05-14T23:46:58.877Z,8.80
2019-05-14T23:49:27.810Z,8.57
2019-05-14T23:51:56.773Z,7.63
2019-05-14T23:54:25.716Z,8.33
2019-05-14T23:56:54.425Z,7.93
2019-05-14T23:59:23.306Z,9.10
